Time;durP1;ratioP1;P1;durP2;ratioP2;P2;SDS_P1;SDS_P2;PMS_P1;PMS_P2;Temp;Humidity;BMP_temperature;BMP_pressure;BME280_temperature;BME280_humidity;BME280_pressure;Samples;Min_cycle;Max_cycle;Signal;HPM_P1;HPM_P2
2023/11/04 00:01:05;;;;;;;1.33;0.50;;;;;;;;;;5053793;28;20033;-88
2023/11/04 00:03:30;;;;;;;0.60;0.40;;;;;;;;;;5054153;28;20043;-88
2023/11/04 00:05:55;;;;;;;1.30;0.60;;;;;;;;;;5056547;28;20460;-88
2023/11/04 00:08:21;;;;;;;3.58;0.60;;;;;;;;;;5066251;28;20017;-88
2023/11/04 00:10:46;;;;;;;1.60;0.60;;;;;;;;;;5054736;28;20031;-88
2023/11/04 00:13:11;;;;;;;1.67;0.50;;;;;;;;;;5054364;28;20025;-88
2023/11/04 00:15:37;;;;;;;1.55;0.70;;;;;;;;;;5054485;28;20231;-89
2023/11/04 00:18:02;;;;;;;1.40;0.50;;;;;;;;;;5055916;28;20047;-90
2023/11/04 00:20:27;;;;;;;1.95;0.73;;;;;;;;;;5053749;28;20104;-88
2023/11/04 00:22:53;;;;;;;2.95;0.65;;;;;;;;;;5053866;28;20017;-88
2023/11/04 00:25:18;;;;;;;3.00;0.47;;;;;;;;;;5053881;28;20477;-87
2023/11/04 00:27:43;;;;;;;2.67;0.60;;;;;;;;;;5054549;28;20490;-88
2023/11/04 00:30:09;;;;;;;2.10;0.73;;;;;;;;;;5059036;28;20492;-88
2023/11/04 00:32:34;;;;;;;4.03;0.95;;;;;;;;;;5059993;28;20059;-87
2023/11/04 00:35:03;;;;;;;4.85;0.80;;;;;;;;;;5042300;28;20025;-88
2023/11/04 00:37:28;;;;;;;2.00;0.63;;;;;;;;;;5053337;28;20025;-88
2023/11/04 00:39:54;;;;;;;3.92;1.05;;;;;;;;;;5067111;28;20039;-87
2023/11/04 00:42:19;;;;;;;4.00;0.70;;;;;;;;;;5053202;28;20140;-88
2023/11/04 00:44:45;;;;;;;2.17;0.80;;;;;;;;;;5054351;28;20071;-88
2023/11/04 00:47:10;;;;;;;1.40;0.77;;;;;;;;;;5053244;28;20139;-88
2023/11/04 00:49:35;;;;;;;3.35;1.10;;;;;;;;;;5055265;28;20475;-88
2023/11/04 00:52:01;;;;;;;1.73;0.90;;;;;;;;;;5074314;28;20028;-88
2023/11/04 00:54:26;;;;;;;3.78;1.00;;;;;;;;;;5059077;28;20029;-88
2023/11/04 00:56:51;;;;;;;2.22;0.73;;;;;;;;;;5052815;28;20071;-88
2023/11/04 00:59:17;;;;;;;2.38;1.00;;;;;;;;;;5054211;28;20025;-89
2023/11/04 01:01:44;;;;;;;2.25;1.08;;;;;;;;;;5052712;28;20070;-87
2023/11/04 01:04:10;;;;;;;2.17;0.63;;;;;;;;;;5053098;28;20365;-88
2023/11/04 01:06:35;;;;;;;7.07;1.10;;;;;;;;;;5052680;28;20014;-88
2023/11/04 01:09:01;;;;;;;3.83;1.02;;;;;;;;;;5052764;28;20059;-87
2023/11/04 01:11:28;;;;;;;3.60;1.20;;;;;;;;;;5052644;28;20050;-88
2023/11/04 01:13:54;;;;;;;3.38;1.02;;;;;;;;;;5038766;28;20033;-88
2023/11/04 01:16:19;;;;;;;2.45;1.20;;;;;;;;;;5052543;28;20021;-87
2023/11/04 01:18:45;;;;;;;3.20;1.10;;;;;;;;;;5052912;28;20040;-88
2023/11/04 01:21:10;;;;;;;6.30;1.20;;;;;;;;;;5052711;28;20011;-88
2023/11/04 01:23:36;;;;;;;4.43;1.10;;;;;;;;;;5067740;28;20021;-88
2023/11/04 01:26:01;;;;;;;6.93;1.45;;;;;;;;;;5052388;28;20021;-87
2023/11/04 01:28:27;;;;;;;4.28;1.13;;;;;;;;;;5052237;28;20060;-88
2023/11/04 01:30:55;;;;;;;3.88;1.58;;;;;;;;;;5066471;28;20043;-88
2023/11/04 01:33:20;;;;;;;2.88;1.20;;;;;;;;;;5052486;28;20077;-88
2023/11/04 01:35:46;;;;;;;3.88;1.15;;;;;;;;;;5064929;28;20016;-88
2023/11/04 01:38:11;;;;;;;4.10;1.10;;;;;;;;;;5059491;28;20025;-89
2023/11/04 01:40:36;;;;;;;7.07;1.40;;;;;;;;;;5068311;28;20029;-89
2023/11/04 01:43:02;;;;;;;8.57;1.48;;;;;;;;;;5056463;28;20104;-88
2023/11/04 01:45:27;;;;;;;5.22;1.25;;;;;;;;;;5062637;28;20013;-88
2023/11/04 01:47:53;;;;;;;4.22;1.13;;;;;;;;;;5052265;28;20535;-88
2023/11/04 01:50:18;;;;;;;3.45;1.27;;;;;;;;;;5052030;28;20024;-88
2023/11/04 01:52:44;;;;;;;2.38;1.00;;;;;;;;;;5052012;28;20025;-88
2023/11/04 01:55:10;;;;;;;7.30;1.23;;;;;;;;;;5059210;28;20380;-88
2023/11/04 01:57:36;;;;;;;2.50;1.23;;;;;;;;;;5062198;28;20028;-89
2023/11/04 02:00:03;;;;;;;3.15;1.10;;;;;;;;;;5052475;28;20021;-89
2023/11/04 02:02:28;;;;;;;3.20;1.38;;;;;;;;;;5052048;28;20036;-88
2023/11/04 02:04:53;;;;;;;2.70;1.13;;;;;;;;;;5044657;28;20017;-88
2023/11/04 02:07:19;;;;;;;3.58;1.20;;;;;;;;;;5047807;28;20017;-88
2023/11/04 02:09:44;;;;;;;2.85;1.20;;;;;;;;;;5072324;28;20406;-88
2023/11/04 02:12:09;;;;;;;5.40;1.45;;;;;;;;;;5075528;28;20535;-88
2023/11/04 02:14:35;;;;;;;5.93;1.48;;;;;;;;;;5058037;28;20056;-87
2023/11/04 02:17:00;;;;;;;4.47;1.45;;;;;;;;;;5056192;28;20047;-88
2023/11/04 02:19:26;;;;;;;3.28;1.25;;;;;;;;;;5055450;28;20089;-88
2023/11/04 02:21:51;;;;;;;7.85;1.63;;;;;;;;;;5057265;28;20053;-88
2023/11/04 02:24:17;;;;;;;4.40;1.40;;;;;;;;;;5070322;28;20024;-87
2023/11/04 02:26:42;;;;;;;4.95;1.70;;;;;;;;;;5067211;28;20062;-88
2023/11/04 02:29:07;;;;;;;4.07;1.50;;;;;;;;;;5062823;28;20025;-87
2023/11/04 02:31:33;;;;;;;5.40;1.52;;;;;;;;;;5055377;28;20025;-87
2023/11/04 02:33:59;;;;;;;5.72;1.70;;;;;;;;;;5056696;28;20021;-88
2023/11/04 02:36:24;;;;;;;5.93;1.63;;;;;;;;;;5060709;28;20089;-89
2023/11/04 02:38:49;;;;;;;4.15;1.17;;;;;;;;;;5063835;28;20037;-88
2023/11/04 02:41:14;;;;;;;6.85;1.77;;;;;;;;;;5055245;28;20017;-88
2023/11/04 02:43:40;;;;;;;8.10;1.63;;;;;;;;;;5064876;28;20027;-88
2023/11/04 02:46:05;;;;;;;6.45;1.30;;;;;;;;;;5060081;28;20017;-88
2023/11/04 02:48:30;;;;;;;3.72;1.40;;;;;;;;;;5056168;28;20025;-89
2023/11/04 02:50:56;;;;;;;6.30;1.55;;;;;;;;;;5068161;28;20024;-88
2023/11/04 02:53:24;;;;;;;4.53;1.33;;;;;;;;;;5057134;28;20468;-88
2023/11/04 02:55:49;;;;;;;4.15;1.45;;;;;;;;;;5054761;28;20032;-87
2023/11/04 02:58:15;;;;;;;6.55;1.80;;;;;;;;;;5054485;28;20021;-88
2023/11/04 03:00:40;;;;;;;4.43;1.60;;;;;;;;;;5054644;28;20029;-88
2023/11/04 03:03:05;;;;;;;4.03;1.60;;;;;;;;;;5054917;28;20016;-88
2023/11/04 03:05:30;;;;;;;3.90;1.70;;;;;;;;;;5055087;28;20017;-88
2023/11/04 03:07:56;;;;;;;2.63;1.40;;;;;;;;;;5065401;28;20070;-87
2023/11/04 03:10:21;;;;;;;4.13;1.70;;;;;;;;;;5058342;28;20021;-88
2023/11/04 03:12:48;;;;;;;9.25;1.42;;;;;;;;;;5055990;28;20017;-88
2023/11/04 03:15:15;;;;;;;5.53;1.73;;;;;;;;;;5054306;28;20490;-88
2023/11/04 03:17:43;;;;;;;3.75;1.85;;;;;;;;;;5054630;28;20427;-88
2023/11/04 03:20:09;;;;;;;4.82;1.63;;;;;;;;;;5054308;28;20117;-87
2023/11/04 03:22:34;;;;;;;4.80;1.65;;;;;;;;;;5053337;28;20049;-87
2023/11/04 03:25:01;;;;;;;3.13;1.40;;;;;;;;;;5054262;28;20021;-88
2023/11/04 03:27:29;;;;;;;4.03;2.00;;;;;;;;;;5048793;28;20064;-89
2023/11/04 03:29:54;;;;;;;4.95;1.55;;;;;;;;;;5068401;28;20032;-87
2023/11/04 03:32:20;;;;;;;6.35;1.50;;;;;;;;;;5054323;28;20423;-88
2023/11/04 03:34:45;;;;;;;6.63;1.70;;;;;;;;;;5069906;28;20025;-88
2023/11/04 03:37:10;;;;;;;3.13;1.50;;;;;;;;;;5058564;28;20024;-88
2023/11/04 03:39:36;;;;;;;3.85;1.20;;;;;;;;;;5060499;28;20025;-88
2023/11/04 03:42:01;;;;;;;5.85;1.50;;;;;;;;;;5054453;28;20074;-88
2023/11/04 03:44:26;;;;;;;4.55;1.63;;;;;;;;;;5068320;28;20122;-88
2023/11/04 03:46:54;;;;;;;5.32;1.50;;;;;;;;;;5054086;28;20032;-88
2023/11/04 03:49:19;;;;;;;5.03;1.42;;;;;;;;;;5054372;28;20025;-89
2023/11/04 03:51:45;;;;;;;2.72;1.50;;;;;;;;;;5054023;28;20028;-88
2023/11/04 03:54:10;;;;;;;2.25;1.30;;;;;;;;;;5068235;28;20025;-88
2023/11/04 03:56:35;;;;;;;5.07;1.40;;;;;;;;;;5054530;28;20108;-88
2023/11/04 03:59:01;;;;;;;16.15;1.55;;;;;;;;;;5055106;28;20091;-89
2023/11/04 04:01:26;;;;;;;7.68;1.60;;;;;;;;;;5055094;28;20017;-89
2023/11/04 04:03:51;;;;;;;5.43;1.42;;;;;;;;;;5053842;28;20016;-88
2023/11/04 04:06:17;;;;;;;5.88;1.45;;;;;;;;;;5053594;28;20101;-87
2023/11/04 04:08:42;;;;;;;5.07;1.60;;;;;;;;;;5053558;28;20078;-88
2023/11/04 04:11:07;;;;;;;4.53;1.20;;;;;;;;;;5053643;28;20052;-88
2023/11/04 04:13:33;;;;;;;4.13;1.90;;;;;;;;;;5053332;28;20063;-88
2023/11/04 04:16:00;;;;;;;9.15;2.03;;;;;;;;;;5055007;28;20040;-87
2023/11/04 04:18:25;;;;;;;5.43;1.73;;;;;;;;;;5053505;28;20063;-88
2023/11/04 04:20:50;;;;;;;9.10;2.10;;;;;;;;;;5053157;28;20110;-87
2023/11/04 04:23:15;;;;;;;8.05;1.63;;;;;;;;;;5053278;28;20024;-87
2023/11/04 04:25:41;;;;;;;5.55;1.52;;;;;;;;;;5054473;28;20016;-88
2023/11/04 04:28:06;;;;;;;11.27;1.75;;;;;;;;;;5053180;28;20021;-87
2023/11/04 04:30:31;;;;;;;5.78;1.25;;;;;;;;;;5053218;28;20029;-89
2023/11/04 04:32:56;;;;;;;5.57;1.52;;;;;;;;;;5052897;28;20025;-88
2023/11/04 04:35:22;;;;;;;10.23;1.88;;;;;;;;;;5052826;28;20067;-89
2023/11/04 04:37:47;;;;;;;4.47;1.60;;;;;;;;;;5053195;28;20021;-88
2023/11/04 04:40:13;;;;;;;8.65;1.50;;;;;;;;;;5052776;28;20170;-89
2023/11/04 04:42:41;;;;;;;4.55;1.55;;;;;;;;;;5052981;28;20021;-88
2023/11/04 04:45:06;;;;;;;7.65;1.52;;;;;;;;;;5054036;28;20096;-88
2023/11/04 04:47:36;;;;;;;7.93;1.40;;;;;;;;;;5052737;28;20095;-88
2023/11/04 04:50:02;;;;;;;4.07;0.82;;;;;;;;;;5054130;28;20392;-88
2023/11/04 04:52:27;;;;;;;3.42;1.33;;;;;;;;;;5053010;28;20107;-88
2023/11/04 04:54:52;;;;;;;2.35;1.10;;;;;;;;;;5053943;28;20017;-88
2023/11/04 04:57:17;;;;;;;5.35;1.42;;;;;;;;;;5053466;28;20104;-88
2023/11/04 04:59:43;;;;;;;4.75;1.10;;;;;;;;;;5053789;28;20043;-88
2023/11/04 05:02:08;;;;;;;6.28;1.23;;;;;;;;;;5052518;28;20036;-88
2023/11/04 05:04:33;;;;;;;11.38;1.58;;;;;;;;;;5053910;28;20464;-88
2023/11/04 05:06:58;;;;;;;4.57;1.20;;;;;;;;;;5052602;28;20421;-89
2023/11/04 05:09:24;;;;;;;3.63;1.05;;;;;;;;;;5053742;28;20099;-88
2023/11/04 05:11:49;;;;;;;6.88;1.20;;;;;;;;;;5052660;28;20035;-89
2023/11/04 05:14:14;;;;;;;4.18;1.25;;;;;;;;;;5042465;28;20030;-89
2023/11/04 05:16:40;;;;;;;4.15;1.40;;;;;;;;;;5048265;28;20024;-88
2023/11/04 05:19:05;;;;;;;7.97;1.20;;;;;;;;;;5052633;28;20477;-89
2023/11/04 05:21:30;;;;;;;6.03;0.98;;;;;;;;;;5052130;28;20028;-88
2023/11/04 05:23:56;;;;;;;9.73;1.00;;;;;;;;;;5052200;28;20100;-88
2023/11/04 05:26:21;;;;;;;3.53;1.45;;;;;;;;;;5052217;28;20029;-88
2023/11/04 05:28:47;;;;;;;5.28;1.50;;;;;;;;;;5052375;28;20009;-88
2023/11/04 05:31:12;;;;;;;9.27;1.60;;;;;;;;;;5053617;28;20087;-88
2023/11/04 05:33:37;;;;;;;6.10;1.30;;;;;;;;;;5051659;28;20404;-89
2023/11/04 05:36:03;;;;;;;7.80;1.33;;;;;;;;;;5052346;28;20028;-88
2023/11/04 05:38:28;;;;;;;6.25;1.27;;;;;;;;;;5052319;28;20064;-90
2023/11/04 05:40:53;;;;;;;7.03;1.30;;;;;;;;;;5053336;28;20014;-88
2023/11/04 05:43:19;;;;;;;6.93;1.40;;;;;;;;;;5052201;28;20406;-88
2023/11/04 05:45:45;;;;;;;4.43;1.23;;;;;;;;;;5052935;28;20032;-88
2023/11/04 05:48:10;;;;;;;3.15;0.98;;;;;;;;;;5052097;28;20472;-89
2023/11/04 05:50:35;;;;;;;5.97;1.33;;;;;;;;;;5036865;28;20162;-89
2023/11/04 05:53:01;;;;;;;5.40;1.20;;;;;;;;;;5039293;28;20036;-88
2023/11/04 05:55:26;;;;;;;6.63;1.15;;;;;;;;;;5052254;28;20029;-88
2023/11/04 05:57:54;;;;;;;6.43;1.48;;;;;;;;;;5052897;28;20025;-89
2023/11/04 06:00:20;;;;;;;5.63;1.15;;;;;;;;;;5052024;28;20090;-89
2023/11/04 06:02:45;;;;;;;4.85;1.10;;;;;;;;;;5051846;28;20477;-89
2023/11/04 06:05:13;;;;;;;2.90;0.95;;;;;;;;;;5051974;28;20009;-89
2023/11/04 06:07:38;;;;;;;2.97;0.88;;;;;;;;;;5053394;28;20103;-89
2023/11/04 06:10:08;;;;;;;4.80;0.80;;;;;;;;;;5052590;28;20020;-89
2023/11/04 06:12:33;;;;;;;2.38;0.95;;;;;;;;;;5051921;28;20384;-89
2023/11/04 06:14:58;;;;;;;6.05;1.20;;;;;;;;;;5051857;28;20029;-88
2023/11/04 06:17:24;;;;;;;6.43;1.35;;;;;;;;;;5052936;28;20345;-88
2023/11/04 06:19:49;;;;;;;4.72;1.00;;;;;;;;;;5052682;28;20100;-88
2023/11/04 06:22:19;;;;;;;4.68;1.08;;;;;;;;;;5038901;28;20028;-89
2023/11/04 06:24:45;;;;;;;5.25;1.10;;;;;;;;;;5051530;28;20025;-88
2023/11/04 06:27:10;;;;;;;4.15;1.05;;;;;;;;;;5051572;28;20017;-87
2023/11/04 06:29:35;;;;;;;6.68;1.23;;;;;;;;;;5052751;28;20017;-88
2023/11/04 06:32:00;;;;;;;5.97;1.20;;;;;;;;;;5051249;28;20043;-88
2023/11/04 06:34:29;;;;;;;4.78;0.98;;;;;;;;;;5052867;28;20071;-88
2023/11/04 06:36:54;;;;;;;3.28;1.02;;;;;;;;;;5051282;28;20469;-88
2023/11/04 06:39:19;;;;;;;5.15;0.80;;;;;;;;;;5051667;28;20066;-88
2023/11/04 06:41:45;;;;;;;3.97;0.90;;;;;;;;;;5052787;28;20067;-88
2023/11/04 06:44:10;;;;;;;4.28;0.90;;;;;;;;;;5050962;28;20428;-89
2023/11/04 06:46:35;;;;;;;4.45;1.10;;;;;;;;;;5051626;28;20017;-89
2023/11/04 06:49:01;;;;;;;2.88;0.80;;;;;;;;;;5051494;28;20603;-88
2023/11/04 06:51:26;;;;;;;8.00;1.02;;;;;;;;;;5051407;28;20017;-88
2023/11/04 06:53:53;;;;;;;2.83;1.13;;;;;;;;;;5051196;28;20108;-88
2023/11/04 06:56:19;;;;;;;9.05;1.40;;;;;;;;;;5051904;28;20033;-88
2023/11/04 06:58:45;;;;;;;6.20;1.33;;;;;;;;;;5054922;28;20108;-88
2023/11/04 07:01:14;;;;;;;11.90;1.00;;;;;;;;;;5055031;28;20120;-87
2023/11/04 07:03:42;;;;;;;3.13;0.90;;;;;;;;;;5054929;28;20021;-88
2023/11/04 07:06:11;;;;;;;5.63;0.90;;;;;;;;;;5056366;28;20468;-89
2023/11/04 07:08:36;;;;;;;3.10;0.75;;;;;;;;;;5056014;28;20378;-88
2023/11/04 07:11:02;;;;;;;3.85;0.95;;;;;;;;;;5056089;28;20017;-88
2023/11/04 07:13:27;;;;;;;6.85;1.10;;;;;;;;;;5054488;28;20028;-88
2023/11/04 07:15:53;;;;;;;1.48;1.00;;;;;;;;;;5055983;28;20108;-89
2023/11/04 07:18:19;;;;;;;3.88;0.93;;;;;;;;;;5054656;28;20052;-89
2023/11/04 07:20:47;;;;;;;2.28;0.63;;;;;;;;;;5055849;28;20523;-88
2023/11/04 07:23:14;;;;;;;3.13;0.80;;;;;;;;;;5054457;28;20399;-88
2023/11/04 07:25:39;;;;;;;7.05;0.80;;;;;;;;;;5040389;28;20021;-89
2023/11/04 07:28:05;;;;;;;3.70;0.93;;;;;;;;;;5055494;28;20495;-88
2023/11/04 07:30:30;;;;;;;2.67;1.10;;;;;;;;;;5054241;28;20175;-88
2023/11/04 07:32:55;;;;;;;8.18;1.13;;;;;;;;;;5054551;28;20079;-88
2023/11/04 07:35:21;;;;;;;3.47;0.82;;;;;;;;;;5054568;28;20049;-89
2023/11/04 07:37:50;;;;;;;2.38;0.80;;;;;;;;;;5055293;28;20024;-88
2023/11/04 07:40:16;;;;;;;3.08;0.90;;;;;;;;;;5054225;28;20052;-88
2023/11/04 07:42:42;;;;;;;4.93;0.80;;;;;;;;;;5054252;28;20043;-90
2023/11/04 07:45:14;;;;;;;3.80;0.93;;;;;;;;;;5050606;28;20017;-88
2023/11/04 07:47:39;;;;;;;4.00;0.90;;;;;;;;;;5053740;28;20397;-89
2023/11/04 07:50:06;;;;;;;1.35;0.88;;;;;;;;;;5053936;28;20062;-88
2023/11/04 07:52:32;;;;;;;1.08;0.50;;;;;;;;;;5053941;28;20507;-89
2023/11/04 07:54:57;;;;;;;3.58;0.82;;;;;;;;;;5055117;28;20035;-88
2023/11/04 07:57:23;;;;;;;2.22;0.77;;;;;;;;;;5065122;28;20021;-88
2023/11/04 07:59:48;;;;;;;3.50;0.70;;;;;;;;;;5056304;28;20024;-88
2023/11/04 08:02:13;;;;;;;1.38;0.80;;;;;;;;;;5053914;28;20103;-88
2023/11/04 08:04:39;;;;;;;1.60;0.40;;;;;;;;;;5067885;28;20029;-88
2023/11/04 08:07:04;;;;;;;2.35;0.70;;;;;;;;;;5053515;28;20025;-88
2023/11/04 08:09:29;;;;;;;3.58;0.82;;;;;;;;;;5052942;28;20040;-89
2023/11/04 08:11:54;;;;;;;4.40;0.88;;;;;;;;;;5053574;28;20083;-88
2023/11/04 08:14:20;;;;;;;5.00;1.05;;;;;;;;;;5053469;28;20037;-89
2023/11/04 08:16:45;;;;;;;1.25;0.52;;;;;;;;;;5054680;28;20021;-89
2023/11/04 08:19:10;;;;;;;2.42;0.77;;;;;;;;;;5053643;28;20036;-89
2023/11/04 08:21:35;;;;;;;3.40;0.40;;;;;;;;;;5053661;28;20033;-89
2023/11/04 08:24:02;;;;;;;0.68;0.50;;;;;;;;;;5053715;28;20048;-88
2023/11/04 08:26:27;;;;;;;0.73;0.50;;;;;;;;;;5053156;28;20132;-89
2023/11/04 08:28:53;;;;;;;1.08;0.65;;;;;;;;;;5053505;28;20032;-89
2023/11/04 08:31:18;;;;;;;1.67;0.60;;;;;;;;;;5053753;28;20540;-88
2023/11/04 08:33:44;;;;;;;7.97;1.00;;;;;;;;;;5065401;28;20072;-88
2023/11/04 08:36:10;;;;;;;2.78;0.88;;;;;;;;;;5053206;28;20024;-88
2023/11/04 08:38:36;;;;;;;4.55;0.57;;;;;;;;;;5054269;28;20029;-88
2023/11/04 08:41:01;;;;;;;2.65;0.40;;;;;;;;;;5052963;28;20035;-88
2023/11/04 08:43:26;;;;;;;2.45;0.57;;;;;;;;;;5054462;28;20033;-88
2023/11/04 08:45:52;;;;;;;3.60;0.50;;;;;;;;;;5052896;28;20025;-89
2023/11/04 08:48:17;;;;;;;5.00;0.73;;;;;;;;;;5053106;28;20112;-88
2023/11/04 08:50:43;;;;;;;3.30;1.00;;;;;;;;;;5054070;28;20074;-89
2023/11/04 08:53:08;;;;;;;1.70;0.60;;;;;;;;;;5065180;28;20132;-89
2023/11/04 08:55:33;;;;;;;3.15;0.60;;;;;;;;;;5054446;28;20050;-89
2023/11/04 08:57:58;;;;;;;2.97;0.32;;;;;;;;;;5052863;28;20036;-89
2023/11/04 09:00:24;;;;;;;4.45;0.90;;;;;;;;;;5052571;28;20497;-88
2023/11/04 09:02:49;;;;;;;1.77;0.63;;;;;;;;;;5052391;28;20017;-88
2023/11/04 09:05:17;;;;;;;1.00;0.50;;;;;;;;;;5052382;28;20055;-88
2023/11/04 09:07:45;;;;;;;5.22;0.50;;;;;;;;;;5052416;28;20013;-89
2023/11/04 09:10:10;;;;;;;0.73;0.40;;;;;;;;;;5053618;28;20024;-88
2023/11/04 09:12:36;;;;;;;1.58;0.73;;;;;;;;;;5053019;28;20021;-89
2023/11/04 09:15:01;;;;;;;1.88;0.50;;;;;;;;;;5051066;28;20022;-88
2023/11/04 09:17:29;;;;;;;2.83;0.50;;;;;;;;;;5052491;28;20094;-89
2023/11/04 09:19:54;;;;;;;4.53;0.57;;;;;;;;;;5051698;28;20021;-89
2023/11/04 09:22:22;;;;;;;1.23;0.50;;;;;;;;;;5047509;28;20501;-89
2023/11/04 09:24:47;;;;;;;4.90;0.63;;;;;;;;;;5052290;28;20170;-88
2023/11/04 09:27:12;;;;;;;1.10;0.40;;;;;;;;;;5051656;28;20333;-88
2023/11/04 09:29:37;;;;;;;2.97;0.73;;;;;;;;;;5053608;28;20023;-89
2023/11/04 09:32:03;;;;;;;2.53;0.70;;;;;;;;;;5053289;28;20013;-88
2023/11/04 09:34:28;;;;;;;2.67;0.60;;;;;;;;;;5052252;28;20016;-89
2023/11/04 09:36:54;;;;;;;2.05;0.50;;;;;;;;;;5038122;28;20025;-88
2023/11/04 09:39:19;;;;;;;5.78;0.60;;;;;;;;;;5048690;28;20080;-89
2023/11/04 09:41:45;;;;;;;0.82;0.30;;;;;;;;;;5044679;28;20036;-88
2023/11/04 09:44:11;;;;;;;4.40;0.77;;;;;;;;;;5051971;28;20407;-88
2023/11/04 09:46:36;;;;;;;4.75;1.02;;;;;;;;;;5053286;28;20411;-87
2023/11/04 09:49:04;;;;;;;2.85;0.75;;;;;;;;;;5051167;28;20021;-88
2023/11/04 09:51:30;;;;;;;1.25;0.57;;;;;;;;;;5051963;28;20016;-89
2023/11/04 09:53:58;;;;;;;2.70;0.45;;;;;;;;;;5053077;28;20025;-88
2023/11/04 09:56:24;;;;;;;2.38;0.50;;;;;;;;;;5056184;28;20525;-90
2023/11/04 09:58:50;;;;;;;4.93;0.63;;;;;;;;;;5056873;28;20025;-89
2023/11/04 10:01:18;;;;;;;3.05;0.47;;;;;;;;;;5051923;28;20028;-87
2023/11/04 10:03:47;;;;;;;1.02;0.40;;;;;;;;;;5051279;28;20052;-89
2023/11/04 10:06:12;;;;;;;5.78;0.93;;;;;;;;;;5066907;28;20055;-90
2023/11/04 10:08:37;;;;;;;7.43;1.00;;;;;;;;;;5050806;28;20021;-88
2023/11/04 10:11:04;;;;;;;1.33;0.40;;;;;;;;;;5039937;28;20112;-88
2023/11/04 10:13:30;;;;;;;3.47;0.73;;;;;;;;;;5051423;28;20468;-89
2023/11/04 10:15:55;;;;;;;2.17;0.60;;;;;;;;;;5051525;28;20071;-88
2023/11/04 10:18:20;;;;;;;2.47;0.50;;;;;;;;;;5051429;28;20082;-88
2023/11/04 10:20:45;;;;;;;3.38;0.63;;;;;;;;;;5053207;28;20024;-88
2023/11/04 10:23:11;;;;;;;6.47;0.95;;;;;;;;;;5039965;28;20091;-89
2023/11/04 10:25:36;;;;;;;3.25;0.80;;;;;;;;;;5050345;28;20067;-89
2023/11/04 10:28:02;;;;;;;6.55;0.50;;;;;;;;;;5051799;28;20017;-89
2023/11/04 10:30:27;;;;;;;6.05;0.80;;;;;;;;;;5057117;28;20021;-89
2023/11/04 10:32:57;;;;;;;5.15;0.70;;;;;;;;;;5055026;28;20103;-89
2023/11/04 10:35:22;;;;;;;6.38;0.52;;;;;;;;;;5063643;28;20024;-86
2023/11/04 10:37:48;;;;;;;3.70;0.60;;;;;;;;;;5059573;28;20044;-86
2023/11/04 10:40:14;;;;;;;2.25;0.50;;;;;;;;;;5055017;28;20017;-84
2023/11/04 10:42:48;;;;;;;4.40;0.60;;;;;;;;;;5054634;28;20017;-85
2023/11/04 10:45:17;;;;;;;3.22;0.75;;;;;;;;;;5057935;28;20373;-86
2023/11/04 10:47:45;;;;;;;1.88;0.60;;;;;;;;;;5062773;28;20020;-85
2023/11/04 10:50:20;;;;;;;1.38;0.50;;;;;;;;;;5059217;28;20123;-85
2023/11/04 10:53:04;;;;;;;4.03;0.60;;;;;;;;;;5046708;28;20021;-85
2023/11/04 10:55:36;;;;;;;11.45;3.05;;;;;;;;;;5040852;28;20112;-85
2023/11/04 10:58:03;;;;;;;16.02;1.90;;;;;;;;;;5055336;28;20358;-85
2023/11/04 11:00:31;;;;;;;5.70;0.60;;;;;;;;;;5055292;28;20035;-84
2023/11/04 11:02:58;;;;;;;1.77;0.70;;;;;;;;;;5061430;28;20351;-85
2023/11/04 11:05:25;;;;;;;2.63;0.60;;;;;;;;;;5059506;28;20051;-84
2023/11/04 11:07:50;;;;;;;3.63;0.55;;;;;;;;;;5064528;28;20024;-85
2023/11/04 11:10:19;;;;;;;4.03;0.95;;;;;;;;;;5053175;28;20024;-85
2023/11/04 11:13:03;;;;;;;1.25;0.40;;;;;;;;;;5053784;28;20021;-85
2023/11/04 11:15:30;;;;;;;3.00;0.50;;;;;;;;;;5039921;28;20024;-85
2023/11/04 11:17:56;;;;;;;2.85;0.63;;;;;;;;;;5055311;28;20559;-85
2023/11/04 11:20:28;;;;;;;0.77;0.40;;;;;;;;;;5054769;28;20113;-85
2023/11/04 11:23:17;;;;;;;1.13;0.50;;;;;;;;;;5053945;28;20028;-85
2023/11/04 11:25:43;;;;;;;2.22;0.30;;;;;;;;;;5051552;28;20025;-85
2023/11/04 11:28:19;;;;;;;3.28;0.60;;;;;;;;;;5046615;28;20017;-85
2023/11/04 11:30:44;;;;;;;1.45;0.32;;;;;;;;;;5062773;28;20017;-85
2023/11/04 11:33:11;;;;;;;3.78;0.40;;;;;;;;;;5051910;28;20029;-84
2023/11/04 11:36:02;;;;;;;1.65;0.57;;;;;;;;;;5063729;28;20021;-85
2023/11/04 11:38:28;;;;;;;4.63;0.70;;;;;;;;;;5052789;28;20024;-85
2023/11/04 11:41:03;;;;;;;1.58;0.40;;;;;;;;;;5051888;28;20017;-85
2023/11/04 11:43:29;;;;;;;2.03;0.10;;;;;;;;;;5083395;28;20043;-85
2023/11/04 11:45:54;;;;;;;2.38;0.52;;;;;;;;;;5054302;28;20021;-84
2023/11/04 11:48:19;;;;;;;4.43;0.50;;;;;;;;;;5052227;28;20106;-84
2023/11/04 11:50:45;;;;;;;1.55;0.30;;;;;;;;;;5058185;28;20056;-84
2023/11/04 11:53:11;;;;;;;2.15;0.57;;;;;;;;;;5054083;28;20464;-84
2023/11/04 11:55:38;;;;;;;1.85;0.57;;;;;;;;;;5052593;28;20025;-85
2023/11/04 11:58:03;;;;;;;1.08;0.40;;;;;;;;;;5065196;28;20017;-85
2023/11/04 12:00:29;;;;;;;1.55;0.20;;;;;;;;;;5054057;28;20091;-84
2023/11/04 12:02:54;;;;;;;1.92;0.43;;;;;;;;;;5053261;28;20414;-83
2023/11/04 12:05:20;;;;;;;1.40;0.63;;;;;;;;;;5053987;28;20025;-84
2023/11/04 12:07:45;;;;;;;3.35;0.40;;;;;;;;;;5053963;28;20021;-85
2023/11/04 12:10:10;;;;;;;5.18;0.40;;;;;;;;;;5052601;28;20013;-86
2023/11/04 12:12:36;;;;;;;0.20;0.20;;;;;;;;;;5058889;28;20051;-84
2023/11/04 12:15:02;;;;;;;0.52;0.10;;;;;;;;;;5059648;28;20029;-84
2023/11/04 12:17:27;;;;;;;0.32;0.28;;;;;;;;;;5061068;28;20021;-84
2023/11/04 12:19:52;;;;;;;0.57;0.40;;;;;;;;;;5070510;28;20525;-84
2023/11/04 12:22:18;;;;;;;1.05;0.30;;;;;;;;;;5064406;28;20095;-84
2023/11/04 12:24:43;;;;;;;0.35;0.10;;;;;;;;;;5058149;28;20470;-85
2023/11/04 12:27:08;;;;;;;1.35;0.30;;;;;;;;;;5067259;28;20020;-83
2023/11/04 12:29:35;;;;;;;1.55;0.60;;;;;;;;;;5053592;28;20472;-84
2023/11/04 12:32:03;;;;;;;0.95;0.20;;;;;;;;;;5071038;28;20031;-85
2023/11/04 12:34:28;;;;;;;0.15;0.13;;;;;;;;;;5058083;28;20389;-85
2023/11/04 12:36:54;;;;;;;0.68;0.30;;;;;;;;;;5065724;28;20025;-84
2023/11/04 12:39:20;;;;;;;0.30;0.20;;;;;;;;;;5064828;28;20043;-84
2023/11/04 12:41:46;;;;;;;0.75;0.30;;;;;;;;;;5068397;28;20364;-84
2023/11/04 12:44:11;;;;;;;0.95;0.22;;;;;;;;;;5061700;28;20024;-84
2023/11/04 12:46:37;;;;;;;0.45;0.25;;;;;;;;;;5055872;28;20017;-84
2023/11/04 12:49:03;;;;;;;0.10;0.05;;;;;;;;;;5063923;28;20528;-85
2023/11/04 12:51:29;;;;;;;0.63;0.30;;;;;;;;;;5052406;28;20377;-84
2023/11/04 12:53:55;;;;;;;2.05;0.45;;;;;;;;;;5062947;28;20017;-84
2023/11/04 12:56:22;;;;;;;0.52;0.15;;;;;;;;;;5051727;28;20024;-85
2023/11/04 12:58:49;;;;;;;0.68;0.40;;;;;;;;;;5051045;28;20017;-84
2023/11/04 13:01:14;;;;;;;0.77;0.45;;;;;;;;;;5050573;28;20530;-84
2023/11/04 13:03:40;;;;;;;2.13;0.40;;;;;;;;;;5051653;28;20057;-84
2023/11/04 13:06:05;;;;;;;0.00;0.00;;;;;;;;;;5051397;28;20999;-84
2023/11/04 13:08:30;;;;;;;0.20;0.10;;;;;;;;;;5052181;28;20049;-85
2023/11/04 13:10:58;;;;;;;1.10;0.30;;;;;;;;;;5051333;28;20016;-84
2023/11/04 13:13:23;;;;;;;0.88;0.40;;;;;;;;;;5050960;28;20044;-84
2023/11/04 13:15:48;;;;;;;0.20;0.10;;;;;;;;;;5054730;28;20032;-85
2023/11/04 13:18:14;;;;;;;0.30;0.20;;;;;;;;;;5039990;28;20029;-85
2023/11/04 13:20:39;;;;;;;1.38;0.30;;;;;;;;;;5041083;28;20050;-85
2023/11/04 13:23:05;;;;;;;0.22;0.10;;;;;;;;;;5051850;28;20388;-85
2023/11/04 13:25:30;;;;;;;0.40;0.15;;;;;;;;;;5052043;28;20404;-85
2023/11/04 13:27:55;;;;;;;0.32;0.17;;;;;;;;;;5051925;28;20380;-85
2023/11/04 13:30:22;;;;;;;0.63;0.13;;;;;;;;;;5051782;28;20488;-84
2023/11/04 13:32:47;;;;;;;0.30;0.10;;;;;;;;;;5051903;28;20112;-85
2023/11/04 13:35:13;;;;;;;1.73;0.38;;;;;;;;;;5051733;28;20052;-84
2023/11/04 13:37:38;;;;;;;2.75;0.45;;;;;;;;;;5052999;28;20029;-85
2023/11/04 13:40:04;;;;;;;1.17;0.38;;;;;;;;;;5051936;28;20108;-85
2023/11/04 13:42:29;;;;;;;0.22;0.15;;;;;;;;;;5051294;28;20020;-85
2023/11/04 13:44:55;;;;;;;1.38;0.50;;;;;;;;;;5051813;28;20032;-84
2023/11/04 13:47:20;;;;;;;0.45;0.30;;;;;;;;;;5051003;28;20017;-84
2023/11/04 13:49:48;;;;;;;1.40;0.50;;;;;;;;;;5050825;28;20108;-84
2023/11/04 13:52:13;;;;;;;1.45;0.40;;;;;;;;;;5060203;28;20477;-85
2023/11/04 13:54:39;;;;;;;1.30;0.40;;;;;;;;;;5052265;28;20028;-84
2023/11/04 13:57:04;;;;;;;2.78;0.70;;;;;;;;;;5052384;28;20029;-84
2023/11/04 13:59:30;;;;;;;0.90;0.20;;;;;;;;;;5050822;28;20017;-84
2023/11/04 14:01:57;;;;;;;1.63;0.52;;;;;;;;;;5050974;28;20120;-85
2023/11/04 14:04:22;;;;;;;0.47;0.20;;;;;;;;;;5050168;28;20028;-83
2023/11/04 14:06:47;;;;;;;0.90;0.40;;;;;;;;;;5050750;28;20021;-86
2023/11/04 14:09:13;;;;;;;4.68;0.40;;;;;;;;;;5055402;28;20477;-86
2023/11/04 14:11:39;;;;;;;0.47;0.30;;;;;;;;;;5056317;28;20104;-85
2023/11/04 14:14:04;;;;;;;4.25;0.22;;;;;;;;;;5054772;28;20069;-85
2023/11/04 14:16:30;;;;;;;0.77;0.30;;;;;;;;;;5056500;28;20025;-84
2023/11/04 14:18:55;;;;;;;0.63;0.22;;;;;;;;;;5054784;28;20025;-85
2023/11/04 14:21:20;;;;;;;3.58;0.35;;;;;;;;;;5064559;28;20047;-84
2023/11/04 14:23:46;;;;;;;2.17;1.05;;;;;;;;;;5042408;28;20440;-85
2023/11/04 14:26:12;;;;;;;2.25;0.88;;;;;;;;;;5056744;28;20028;-85
2023/11/04 14:28:37;;;;;;;0.50;0.30;;;;;;;;;;5054241;28;20112;-85
2023/11/04 14:31:03;;;;;;;0.60;0.22;;;;;;;;;;5055438;28;20013;-84
2023/11/04 14:33:29;;;;;;;0.45;0.30;;;;;;;;;;5052658;28;20050;-85
2023/11/04 14:35:54;;;;;;;1.20;0.47;;;;;;;;;;5056623;28;20059;-85